Terminal Aerodrome Forecast
Issued by NWS

Home | Current Version | Previous Version | Text Only | Print | Product List | Glossary On
Versions: 1 2 3 4 5 6 7 8 9 10 11 12 13 14 15 16 17 18 19 20 21 22 23 24 25
000
FTUS43 KLSX 262059 AAA
TAFCPS
TAF AMD
KCPS 262059Z 2621/2718 19009KT P6SM FEW030 SCT150
     FM270100 18008KT P6SM SCT150
     FM270700 19007KT P6SM VCTS BKN060CB
     FM271300 18010KT 6SM -SHRA VCTS SCT025 OVC050CB=

USA.gov is the U.S. government's official web portal to all federal, state and local government web resources and services.